Time;durP1;ratioP1;P1;durP2;ratioP2;P2;SDS_P1;SDS_P2;PMS_P1;PMS_P2;Temp;Humidity;BMP_temperature;BMP_pressure;BME280_temperature;BME280_humidity;BME280_pressure;Samples;Min_cycle;Max_cycle;Signal;HPM_P1;HPM_P2
2023/11/01 00:01:47;;;;;;;10.60;4.05;;;;;;;11.80;100.00;99897.34;4980084;28;20125;-79
2023/11/01 00:04:19;;;;;;;9.73;4.07;;;;;;;11.83;100.00;99902.19;4979759;28;20123;-79
2023/11/01 00:06:45;;;;;;;10.82;4.40;;;;;;;11.85;100.00;99897.59;4979964;28;20486;-79
2023/11/01 00:09:13;;;;;;;10.25;4.40;;;;;;;11.79;100.00;99898.34;4979194;28;20078;-79
2023/11/01 00:11:40;;;;;;;10.25;4.03;;;;;;;11.81;100.00;99891.09;4978939;28;20521;-80
2023/11/01 00:14:07;;;;;;;10.88;4.00;;;;;;;11.84;100.00;99899.38;4978249;28;20262;-79
2023/11/01 00:16:35;;;;;;;14.07;3.80;;;;;;;11.85;100.00;99905.44;4979306;28;20453;-79
2023/11/01 00:19:01;;;;;;;13.25;4.15;;;;;;;11.82;100.00;99904.00;4979453;28;20074;-80
2023/11/01 00:21:28;;;;;;;7.97;4.15;;;;;;;11.82;100.00;99893.53;4978813;28;20130;-79
2023/11/01 00:23:54;;;;;;;8.30;4.00;;;;;;;11.84;100.00;99901.19;4978902;28;20133;-80
2023/11/01 00:26:21;;;;;;;8.45;3.92;;;;;;;11.87;100.00;99890.34;4979212;28;20117;-80
2023/11/01 00:28:47;;;;;;;8.90;4.30;;;;;;;11.87;100.00;99901.66;4979144;28;20114;-79
2023/11/01 00:31:14;;;;;;;10.35;3.90;;;;;;;11.83;100.00;99900.38;4979338;28;20055;-80
2023/11/01 00:33:43;;;;;;;8.30;4.07;;;;;;;11.86;100.00;99899.22;4980031;28;20049;-79
2023/11/01 00:36:10;;;;;;;10.02;4.20;;;;;;;11.76;100.00;99890.81;4978421;28;20055;-80
2023/11/01 00:38:37;;;;;;;11.63;4.50;;;;;;;11.67;100.00;99894.50;4979072;28;20058;-80
2023/11/01 00:41:05;;;;;;;8.90;4.15;;;;;;;11.73;100.00;99891.97;4979298;28;20126;-79
2023/11/01 00:43:32;;;;;;;13.43;4.70;;;;;;;11.71;100.00;99893.16;4980807;28;20047;-82
2023/11/01 00:45:59;;;;;;;11.10;4.30;;;;;;;11.73;100.00;99888.53;4980734;28;20058;-80
2023/11/01 00:48:25;;;;;;;15.20;5.30;;;;;;;11.68;100.00;99889.09;4980517;28;20110;-81
2023/11/01 00:50:56;;;;;;;10.07;4.38;;;;;;;11.66;100.00;99874.53;4979629;28;20135;-81
2023/11/01 00:53:22;;;;;;;11.32;4.80;;;;;;;11.60;100.00;99868.22;4978578;28;20082;-79
2023/11/01 00:55:49;;;;;;;9.65;4.30;;;;;;;11.57;100.00;99869.38;4976612;28;20126;-79
2023/11/01 00:58:15;;;;;;;8.52;4.85;;;;;;;11.58;100.00;99860.53;4978941;28;20129;-79
2023/11/01 01:00:42;;;;;;;10.30;4.65;;;;;;;11.56;100.00;99866.94;4977922;28;20137;-79
2023/11/01 01:03:10;;;;;;;10.25;4.45;;;;;;;11.49;100.00;99859.00;4977977;28;20126;-80
2023/11/01 01:05:37;;;;;;;8.38;4.38;;;;;;;11.42;100.00;99855.47;4978983;28;20047;-80
2023/11/01 01:08:05;;;;;;;7.35;3.97;;;;;;;11.41;100.00;99853.84;4980829;28;20051;-82
2023/11/01 01:10:31;;;;;;;10.20;3.80;;;;;;;11.28;100.00;99848.44;4981289;28;20167;-80
2023/11/01 01:12:58;;;;;;;11.23;4.57;;;;;;;11.35;100.00;99848.50;4979623;28;20039;-81
2023/11/01 01:15:25;;;;;;;10.40;4.80;;;;;;;11.26;100.00;99851.22;4980012;28;20077;-80
2023/11/01 01:17:52;;;;;;;11.95;4.53;;;;;;;11.26;100.00;99842.56;4980627;28;20069;-82
2023/11/01 01:20:19;;;;;;;10.05;4.72;;;;;;;11.27;100.00;99838.94;4977114;28;20074;-78
2023/11/01 01:22:46;;;;;;;9.93;4.65;;;;;;;11.27;100.00;99847.63;4978277;28;20141;-79
2023/11/01 01:25:14;;;;;;;12.73;4.72;;;;;;;11.20;100.00;99840.66;4976713;28;20065;-79
2023/11/01 01:27:41;;;;;;;10.57;4.68;;;;;;;11.27;100.00;99841.56;4977914;28;20074;-80
2023/11/01 01:30:09;;;;;;;6.85;4.30;;;;;;;11.28;100.00;99832.72;4977760;28;20529;-79
2023/11/01 01:32:38;;;;;;;12.80;4.60;;;;;;;11.33;100.00;99825.13;4977905;28;20410;-79
2023/11/01 01:35:06;;;;;;;15.23;4.88;;;;;;;11.26;100.00;99832.06;4977513;28;20141;-79
2023/11/01 01:37:32;;;;;;;13.25;4.65;;;;;;;11.32;100.00;99827.94;4978123;28;20065;-79
2023/11/01 01:39:59;;;;;;;11.40;4.70;;;;;;;11.25;100.00;99823.41;4977663;28;20138;-80
2023/11/01 01:42:27;;;;;;;7.28;4.22;;;;;;;11.25;100.00;99814.75;4977756;28;20466;-79
2023/11/01 01:44:54;;;;;;;12.65;4.22;;;;;;;11.39;100.00;99813.91;4976540;28;20139;-79
2023/11/01 01:47:20;;;;;;;8.13;4.60;;;;;;;11.26;100.00;99809.31;4977269;28;20059;-79
2023/11/01 01:49:47;;;;;;;8.85;5.55;;;;;;;11.25;100.00;99812.13;4977528;28;20493;-79
2023/11/01 01:52:14;;;;;;;8.50;4.32;;;;;;;11.25;100.00;99806.88;4978388;28;20110;-80
2023/11/01 01:54:41;;;;;;;8.60;4.47;;;;;;;11.24;100.00;99800.03;4981612;28;20047;-79
2023/11/01 01:57:09;;;;;;;9.90;4.47;;;;;;;11.24;100.00;99800.84;4977827;28;20540;-80
2023/11/01 01:59:37;;;;;;;10.55;4.57;;;;;;;11.16;100.00;99800.91;4977537;28;20429;-79
2023/11/01 02:02:05;;;;;;;14.10;4.53;;;;;;;11.10;100.00;99790.34;4977922;28;20051;-80
2023/11/01 02:04:32;;;;;;;12.60;5.28;;;;;;;11.07;100.00;99793.31;4978498;28;20065;-80
2023/11/01 02:06:58;;;;;;;10.38;4.78;;;;;;;11.09;100.00;99788.72;4977573;28;20134;-79
2023/11/01 02:09:25;;;;;;;13.27;5.53;;;;;;;11.04;100.00;99788.44;4976740;28;20049;-79
2023/11/01 02:11:52;;;;;;;11.35;5.30;;;;;;;11.04;100.00;99783.19;4976698;28;20125;-80
2023/11/01 02:14:21;;;;;;;10.32;4.90;;;;;;;11.09;100.00;99781.69;4977054;28;20070;-79
2023/11/01 02:16:50;;;;;;;11.18;5.43;;;;;;;11.01;100.00;99778.31;4977087;28;20060;-80
2023/11/01 02:19:17;;;;;;;12.02;6.07;;;;;;;11.05;100.00;99774.34;4977397;28;20137;-80
2023/11/01 02:21:44;;;;;;;10.15;5.70;;;;;;;11.04;100.00;99776.16;4977231;28;20047;-79
2023/11/01 02:24:12;;;;;;;14.80;7.13;;;;;;;11.03;100.00;99778.97;4977882;28;20525;-80
2023/11/01 02:26:39;;;;;;;11.65;6.97;;;;;;;10.98;100.00;99777.69;4977134;28;20142;-80
2023/11/01 02:29:05;;;;;;;14.40;6.85;;;;;;;11.01;100.00;99778.31;4977653;28;20142;-79
2023/11/01 02:31:32;;;;;;;13.60;6.93;;;;;;;11.02;100.00;99775.53;4975574;28;20146;-79
2023/11/01 02:33:58;;;;;;;10.20;7.05;;;;;;;11.03;100.00;99776.34;4974520;28;20138;-78
2023/11/01 02:36:25;;;;;;;10.60;6.80;;;;;;;11.03;100.00;99776.34;4974751;28;20138;-79
2023/11/01 02:38:52;;;;;;;10.80;6.68;;;;;;;11.03;100.00;99768.50;4974661;28;20074;-79
2023/11/01 02:41:20;;;;;;;12.18;6.47;;;;;;;11.06;100.00;99761.09;4975112;28;20125;-78
2023/11/01 02:43:46;;;;;;;11.63;6.40;;;;;;;11.11;100.00;99765.78;4975228;28;20106;-79
2023/11/01 02:46:13;;;;;;;10.77;6.03;;;;;;;11.07;100.00;99764.50;4975203;28;20141;-79
2023/11/01 02:48:40;;;;;;;11.85;5.68;;;;;;;11.07;100.00;99756.66;4977012;28;20133;-79
2023/11/01 02:51:06;;;;;;;13.23;6.32;;;;;;;11.05;100.00;99750.78;4976844;28;20157;-79
2023/11/01 02:53:33;;;;;;;14.65;6.15;;;;;;;11.05;100.00;99749.00;4976160;28;20454;-78
2023/11/01 02:55:59;;;;;;;11.77;6.15;;;;;;;11.01;100.00;99744.28;4973536;28;20089;-78
2023/11/01 02:58:29;;;;;;;13.68;6.35;;;;;;;11.00;100.00;99751.34;4973034;28;20146;-78
2023/11/01 03:00:56;;;;;;;11.40;5.95;;;;;;;11.03;100.00;99748.34;4972814;28;20078;-78
2023/11/01 03:03:23;;;;;;;12.38;6.38;;;;;;;11.08;100.00;99753.06;4973600;28;20057;-78
2023/11/01 03:05:50;;;;;;;10.90;5.53;;;;;;;11.16;100.00;99755.59;4973016;28;20113;-78
2023/11/01 03:08:16;;;;;;;15.07;5.60;;;;;;;11.08;100.00;99747.81;4972385;28;20196;-78
2023/11/01 03:10:43;;;;;;;12.15;6.72;;;;;;;11.16;100.00;99755.59;4971585;28;20134;-78
2023/11/01 03:13:10;;;;;;;11.50;5.72;;;;;;;11.07;100.00;99751.44;4972037;28;20152;-77
2023/11/01 03:15:38;;;;;;;7.70;5.35;;;;;;;11.11;100.00;99750.06;4972598;28;20097;-78
2023/11/01 03:18:06;;;;;;;8.63;5.35;;;;;;;11.12;100.00;99744.66;4972686;28;20517;-78
2023/11/01 03:20:33;;;;;;;14.45;5.35;;;;;;;11.19;100.00;99753.41;4978572;28;20461;-78
2023/11/01 03:23:00;;;;;;;9.82;5.70;;;;;;;11.07;100.00;99743.56;4979804;28;20461;-79
2023/11/01 03:25:27;;;;;;;9.93;4.90;;;;;;;11.10;100.00;99735.34;4980817;28;20058;-79
2023/11/01 03:27:54;;;;;;;11.55;5.05;;;;;;;11.21;100.00;99740.97;4981683;28;20078;-80
2023/11/01 03:30:22;;;;;;;8.05;4.63;;;;;;;11.13;100.00;99742.84;4982044;28;20058;-81
2023/11/01 03:32:50;;;;;;;10.98;5.68;;;;;;;11.21;100.00;99745.38;4979858;28;20159;-79
2023/11/01 03:35:16;;;;;;;8.85;4.85;;;;;;;11.17;100.00;99746.75;4978561;28;20388;-78
2023/11/01 03:37:43;;;;;;;10.68;5.05;;;;;;;11.14;100.00;99745.28;4978381;28;20475;-78
2023/11/01 03:40:10;;;;;;;9.20;5.35;;;;;;;11.17;100.00;99736.25;4978946;28;20059;-79
2023/11/01 03:42:38;;;;;;;11.57;5.22;;;;;;;11.23;100.00;99738.97;4979619;28;20074;-79
2023/11/01 03:45:06;;;;;;;9.45;5.60;;;;;;;11.19;100.00;99736.91;4978501;28;20051;-79
2023/11/01 03:47:32;;;;;;;10.65;5.60;;;;;;;11.21;100.00;99725.25;4982068;28;20110;-79
2023/11/01 03:50:00;;;;;;;12.98;6.22;;;;;;;11.17;100.00;99731.03;4970539;28;20070;-78
2023/11/01 03:52:27;;;;;;;13.80;6.35;;;;;;;11.23;100.00;99725.06;4981746;28;20489;-80
2023/11/01 03:54:53;;;;;;;11.98;6.60;;;;;;;11.24;100.00;99726.69;4980567;28;20082;-80
2023/11/01 03:57:20;;;;;;;10.63;6.28;;;;;;;11.23;100.00;99730.31;4981505;28;20130;-79
2023/11/01 03:59:47;;;;;;;12.73;6.35;;;;;;;11.22;100.00;99726.06;4980412;28;20061;-80
2023/11/01 04:02:13;;;;;;;10.63;6.65;;;;;;;11.22;100.00;99733.91;4980832;28;20138;-80
2023/11/01 04:04:40;;;;;;;10.95;6.10;;;;;;;11.06;100.00;99716.59;4978284;28;20125;-79
2023/11/01 04:07:09;;;;;;;11.43;5.78;;;;;;;11.09;100.00;99718.84;4978686;28;20488;-79
2023/11/01 04:09:36;;;;;;;10.07;6.00;;;;;;;11.14;100.00;99721.72;4975691;28;20082;-79
2023/11/01 04:12:02;;;;;;;7.93;5.50;;;;;;;11.15;100.00;99718.13;4978410;28;20054;-79
2023/11/01 04:14:29;;;;;;;11.20;6.28;;;;;;;11.04;100.00;99710.72;4977736;28;20078;-79
2023/11/01 04:16:55;;;;;;;9.68;6.38;;;;;;;11.14;100.00;99711.25;4976190;28;20146;-79
2023/11/01 04:19:22;;;;;;;11.57;6.45;;;;;;;11.16;100.00;99704.03;4975064;28;20101;-79
2023/11/01 04:21:49;;;;;;;8.45;6.22;;;;;;;11.11;100.00;99711.63;4979779;28;20138;-79
2023/11/01 04:24:17;;;;;;;7.57;6.15;;;;;;;11.13;100.00;99716.66;4976622;28;20115;-79
2023/11/01 04:26:45;;;;;;;14.90;8.02;;;;;;;11.17;100.00;99707.47;4977229;28;20102;-79
2023/11/01 04:29:11;;;;;;;8.77;5.72;;;;;;;11.22;100.00;99703.31;4976788;28;20050;-79
2023/11/01 04:31:38;;;;;;;10.63;5.65;;;;;;;11.27;100.00;99705.38;4974636;28;20051;-78
2023/11/01 04:34:05;;;;;;;11.13;5.50;;;;;;;11.32;100.00;99703.03;4977253;28;20050;-79
2023/11/01 04:36:35;;;;;;;10.95;6.53;;;;;;;11.35;100.00;99704.44;4975156;28;20762;-78
2023/11/01 04:39:03;;;;;;;12.18;6.22;;;;;;;11.37;100.00;99708.50;4975998;28;20399;-78
2023/11/01 04:41:31;;;;;;;9.63;6.10;;;;;;;11.21;100.00;99698.25;4972815;28;20132;-78
2023/11/01 04:43:57;;;;;;;10.73;5.75;;;;;;;11.32;100.00;99697.78;4973357;28;20521;-78
2023/11/01 04:46:24;;;;;;;8.35;5.97;;;;;;;11.34;100.00;99701.03;4973818;28;20533;-78
2023/11/01 04:48:50;;;;;;;7.85;5.57;;;;;;;11.41;100.00;99686.19;4971269;28;20118;-78
2023/11/01 04:51:17;;;;;;;8.38;5.13;;;;;;;11.34;100.00;99690.56;4973195;28;20097;-78
2023/11/01 04:53:44;;;;;;;7.70;5.20;;;;;;;11.33;100.00;99694.16;4973029;28;20073;-78
2023/11/01 04:56:10;;;;;;;9.30;5.55;;;;;;;11.36;100.00;99685.91;4973569;28;20137;-78
2023/11/01 04:58:38;;;;;;;7.40;5.03;;;;;;;11.39;100.00;99685.56;4973154;28;20094;-77
2023/11/01 05:01:06;;;;;;;8.05;4.60;;;;;;;11.43;100.00;99688.63;4972894;28;20092;-77
2023/11/01 05:03:35;;;;;;;6.90;4.57;;;;;;;11.40;100.00;99684.56;4975162;28;20125;-78
2023/11/01 05:06:01;;;;;;;7.43;4.70;;;;;;;11.44;100.00;99691.06;4974517;28;20058;-78
2023/11/01 05:08:28;;;;;;;8.45;4.13;;;;;;;11.39;100.00;99677.69;4974383;28;20145;-78
2023/11/01 05:10:54;;;;;;;9.10;4.13;;;;;;;11.45;100.00;99682.19;4974016;28;20114;-79
2023/11/01 05:13:21;;;;;;;10.02;4.22;;;;;;;11.43;100.00;99688.63;4974435;28;20047;-78
2023/11/01 05:15:49;;;;;;;7.13;4.28;;;;;;;11.40;100.00;99681.13;4974010;28;20484;-79
2023/11/01 05:18:16;;;;;;;7.38;4.57;;;;;;;11.36;100.00;99685.09;4975971;28;20134;-79
2023/11/01 05:20:42;;;;;;;6.63;3.80;;;;;;;11.37;100.00;99668.41;4975722;28;20133;-79
2023/11/01 05:23:09;;;;;;;10.45;3.97;;;;;;;11.27;100.00;99673.94;4975510;28;20443;-79
2023/11/01 05:25:35;;;;;;;7.88;4.38;;;;;;;11.20;100.00;99673.06;4975461;28;20066;-80
2023/11/01 05:28:02;;;;;;;5.88;4.07;;;;;;;11.15;100.00;99670.16;4975505;28;20086;-79
2023/11/01 05:30:29;;;;;;;7.38;4.60;;;;;;;11.14;100.00;99681.63;4975249;28;20129;-78
2023/11/01 05:32:57;;;;;;;5.72;4.30;;;;;;;11.18;100.00;99669.81;4974633;28;20055;-78
2023/11/01 05:35:24;;;;;;;9.52;4.72;;;;;;;11.11;100.00;99679.38;4975020;28;20057;-79
2023/11/01 05:37:50;;;;;;;7.10;4.60;;;;;;;11.07;100.00;99678.13;4975466;28;20051;-79
2023/11/01 05:40:17;;;;;;;6.55;5.10;;;;;;;11.02;100.00;99677.84;4974119;28;20104;-79
2023/11/01 05:42:45;;;;;;;11.70;6.85;;;;;;;11.04;100.00;99681.09;4973411;28;20535;-79
2023/11/01 05:45:15;;;;;;;7.68;5.35;;;;;;;11.00;100.00;99680.66;4974684;28;20134;-79
2023/11/01 05:47:42;;;;;;;9.32;5.72;;;;;;;10.93;100.00;99680.56;4974772;28;20142;-78
2023/11/01 05:50:12;;;;;;;9.02;5.65;;;;;;;10.96;100.00;99671.53;4973923;28;20413;-78
2023/11/01 05:52:38;;;;;;;9.07;6.05;;;;;;;10.87;100.00;99673.44;4973984;28;20528;-79
2023/11/01 05:55:06;;;;;;;9.50;6.45;;;;;;;10.87;100.00;99673.44;4974147;28;20042;-79
2023/11/01 05:57:33;;;;;;;9.73;5.90;;;;;;;10.84;100.00;99673.00;4975643;28;20106;-78
2023/11/01 06:00:00;;;;;;;12.77;6.45;;;;;;;10.82;100.00;99675.00;4974679;28;20073;-78
2023/11/01 06:02:26;;;;;;;7.43;6.07;;;;;;;10.85;100.00;99675.44;4974689;28;20126;-78
2023/11/01 06:04:53;;;;;;;10.63;6.30;;;;;;;10.84;100.00;99673.81;4974099;28;20074;-78
2023/11/01 06:07:21;;;;;;;9.63;5.95;;;;;;;10.85;100.00;99670.22;4973411;28;20057;-79
2023/11/01 06:09:48;;;;;;;8.43;5.32;;;;;;;10.90;100.00;99669.63;4975194;28;20088;-79
2023/11/01 06:12:15;;;;;;;8.95;5.38;;;;;;;10.92;100.00;99673.69;4977980;28;20086;-79
2023/11/01 06:14:41;;;;;;;9.30;4.88;;;;;;;10.97;100.00;99668.75;4977651;28;20042;-79
2023/11/01 06:17:08;;;;;;;10.80;4.60;;;;;;;11.02;100.00;99675.25;4977815;28;20078;-79
2023/11/01 06:19:34;;;;;;;6.97;4.68;;;;;;;11.07;100.00;99683.34;4978408;28;20152;-79
2023/11/01 06:22:04;;;;;;;9.00;5.30;;;;;;;11.09;100.00;99671.72;4977059;28;20053;-78
2023/11/01 06:24:32;;;;;;;7.43;4.10;;;;;;;11.13;100.00;99677.41;4976566;28;20050;-79
2023/11/01 06:26:59;;;;;;;8.32;4.60;;;;;;;11.18;100.00;99675.03;4977701;28;20137;-79
2023/11/01 06:29:26;;;;;;;17.23;10.75;;;;;;;11.26;100.00;99667.91;4981611;28;20452;-79
2023/11/01 06:31:53;;;;;;;7.82;4.32;;;;;;;11.23;100.00;99678.75;4976006;28;20055;-79
2023/11/01 06:34:19;;;;;;;9.93;4.15;;;;;;;11.22;100.00;99671.06;4975509;28;20170;-79
2023/11/01 06:36:46;;;;;;;7.80;3.97;;;;;;;11.15;100.00;99675.41;4975955;28;20141;-78
2023/11/01 06:39:13;;;;;;;9.75;4.70;;;;;;;11.20;100.00;99683.53;4975406;28;20054;-79
2023/11/01 06:41:41;;;;;;;7.68;5.05;;;;;;;11.27;100.00;99692.28;4974333;28;20051;-78
2023/11/01 06:44:08;;;;;;;7.68;4.38;;;;;;;11.18;100.00;99682.91;4974487;28;20057;-79
2023/11/01 06:46:35;;;;;;;7.97;4.78;;;;;;;11.27;100.00;99681.81;4974755;28;20082;-79
2023/11/01 06:49:02;;;;;;;7.80;4.55;;;;;;;11.17;100.00;99683.91;4974151;28;20089;-78
2023/11/01 06:51:28;;;;;;;7.07;4.50;;;;;;;11.13;100.00;99683.44;4974256;28;20555;-79
2023/11/01 06:53:55;;;;;;;11.88;4.40;;;;;;;11.14;100.00;99679.03;4971766;28;20061;-78
2023/11/01 06:56:21;;;;;;;11.68;4.47;;;;;;;11.09;100.00;99676.94;4975593;28;20153;-79
2023/11/01 06:58:49;;;;;;;8.77;5.15;;;;;;;11.15;100.00;99683.25;4974705;28;20137;-79
2023/11/01 07:01:16;;;;;;;9.27;5.40;;;;;;;11.15;100.00;99685.88;4976466;28;20137;-80
2023/11/01 07:03:42;;;;;;;10.18;5.28;;;;;;;11.17;100.00;99689.94;4974556;28;20062;-78
2023/11/01 07:06:09;;;;;;;8.48;4.97;;;;;;;11.22;100.00;99681.53;4976075;28;20078;-79
2023/11/01 07:08:36;;;;;;;10.25;5.47;;;;;;;11.28;100.00;99673.78;4974937;28;20051;-79
2023/11/01 07:11:02;;;;;;;11.13;5.22;;;;;;;11.36;100.00;99679.88;4974723;28;20066;-78
2023/11/01 07:13:29;;;;;;;10.85;4.80;;;;;;;11.39;100.00;99672.47;4975132;28;20089;-79
2023/11/01 07:15:57;;;;;;;10.23;5.00;;;;;;;11.47;100.00;99685.44;4975464;28;20557;-80
2023/11/01 07:18:23;;;;;;;9.65;5.32;;;;;;;11.49;100.00;99682.66;4975428;28;20138;-79
2023/11/01 07:20:51;;;;;;;11.45;5.82;;;;;;;11.49;100.00;99685.28;4976001;28;20415;-80
2023/11/01 07:23:18;;;;;;;9.20;5.30;;;;;;;11.50;100.00;99679.84;4977086;28;20122;-80
2023/11/01 07:25:44;;;;;;;8.32;5.82;;;;;;;11.61;100.00;99675.94;4975939;28;20133;-80
2023/11/01 07:28:11;;;;;;;10.35;4.90;;;;;;;11.62;100.00;99677.56;4975914;28;20081;-79
2023/11/01 07:30:38;;;;;;;7.45;5.00;;;;;;;11.75;100.00;99675.06;4976715;28;20133;-79
2023/11/01 07:33:06;;;;;;;10.20;5.38;;;;;;;11.83;100.00;99668.91;4976377;28;20629;-79
2023/11/01 07:35:32;;;;;;;13.07;8.00;;;;;;;11.86;100.00;99655.44;4977538;28;20130;-79
2023/11/01 07:37:59;;;;;;;11.55;5.95;;;;;;;11.99;100.00;99658.16;4977709;28;20457;-79
2023/11/01 07:40:26;;;;;;;15.75;5.65;;;;;;;12.01;100.00;99653.56;4977568;28;20061;-79
2023/11/01 07:42:52;;;;;;;12.38;4.95;;;;;;;11.96;100.00;99648.06;4977620;28;20070;-80
2023/11/01 07:45:19;;;;;;;12.85;4.90;;;;;;;12.15;100.00;99646.63;4979922;28;20133;-80
2023/11/01 07:47:45;;;;;;;13.43;5.72;;;;;;;12.18;100.00;99648.84;4979565;28;20119;-80
2023/11/01 07:50:13;;;;;;;17.75;5.28;;;;;;;12.05;100.00;99652.19;4979607;28;20137;-80
2023/11/01 07:52:40;;;;;;;12.05;6.18;;;;;;;12.09;100.00;99647.38;4980447;28;20093;-79
2023/11/01 07:55:07;;;;;;;12.43;5.97;;;;;;;12.21;100.00;99645.84;4984439;28;20078;-80
2023/11/01 07:57:34;;;;;;;12.63;7.15;;;;;;;12.19;100.00;99647.84;4985994;28;20089;-80
2023/11/01 08:00:02;;;;;;;16.17;7.03;;;;;;;12.21;100.00;99651.91;4976994;28;20046;-81
2023/11/01 08:02:29;;;;;;;12.45;6.32;;;;;;;12.22;100.00;99648.28;4978310;28;20054;-79
2023/11/01 08:04:56;;;;;;;13.40;6.00;;;;;;;12.54;100.00;99652.13;4976936;28;20130;-80
2023/11/01 08:07:24;;;;;;;13.55;6.10;;;;;;;12.41;100.00;99645.97;4980147;28;20119;-81
2023/11/01 08:09:51;;;;;;;10.48;5.57;;;;;;;12.54;100.00;99646.06;4981777;28;20397;-80
2023/11/01 08:12:18;;;;;;;15.43;5.80;;;;;;;12.75;100.00;99643.38;4982662;28;20125;-80
2023/11/01 08:14:44;;;;;;;14.55;4.82;;;;;;;12.92;100.00;99644.66;4984916;28;20138;-81
2023/11/01 08:17:11;;;;;;;12.20;5.43;;;;;;;12.71;100.00;99634.28;4984329;28;20058;-81
2023/11/01 08:19:39;;;;;;;13.40;5.20;;;;;;;12.70;100.00;99627.41;4981861;28;20051;-82
2023/11/01 08:22:06;;;;;;;11.65;5.03;;;;;;;12.94;100.00;99624.28;4982643;28;20129;-83
2023/11/01 08:24:34;;;;;;;11.55;4.68;;;;;;;12.86;100.00;99619.19;4981814;28;20058;-80
2023/11/01 08:27:00;;;;;;;8.65;5.70;;;;;;;12.84;100.00;99626.44;4982694;28;20078;-82
2023/11/01 08:29:27;;;;;;;11.23;4.22;;;;;;;12.93;100.00;99606.09;4982648;28;20133;-82
2023/11/01 08:31:55;;;;;;;14.70;6.10;;;;;;;12.89;100.00;99610.91;4982010;28;20074;-82
2023/11/01 08:34:22;;;;;;;12.30;4.80;;;;;;;12.90;100.00;99615.16;4981202;28;20074;-79
2023/11/01 08:36:49;;;;;;;14.38;5.20;;;;;;;13.02;100.00;99611.97;4978895;28;20048;-80
2023/11/01 08:39:15;;;;;;;15.88;9.05;;;;;;;13.17;100.00;99615.31;4980380;28;20426;-81
2023/11/01 08:41:43;;;;;;;10.63;7.32;;;;;;;13.26;100.00;99617.53;4980605;28;20131;-80
2023/11/01 08:44:10;;;;;;;9.38;5.68;;;;;;;13.36;100.00;99613.72;4983509;28;20078;-81
2023/11/01 08:46:37;;;;;;;11.30;7.18;;;;;;;13.32;100.00;99608.06;4985806;28;20074;-80
2023/11/01 08:49:04;;;;;;;11.98;5.25;;;;;;;13.34;100.00;99606.03;4980370;28;20440;-81
2023/11/01 08:51:30;;;;;;;9.77;5.25;;;;;;;13.42;100.00;99607.69;4980300;28;20085;-82
2023/11/01 08:53:59;;;;;;;15.27;8.82;;;;;;;13.43;100.00;99604.03;4978428;28;20541;-80
2023/11/01 08:56:26;;;;;;;11.07;5.55;;;;;;;13.42;100.00;99603.22;4979312;28;20402;-79
2023/11/01 08:58:54;;;;;;;43.17;29.38;;;;;;;13.37;100.00;99599.56;4978080;28;20074;-80
2023/11/01 09:01:20;;;;;;;13.07;8.15;;;;;;;13.43;100.00;99604.84;4974644;28;20082;-80
2023/11/01 09:03:48;;;;;;;24.73;16.88;;;;;;;13.53;100.00;99607.91;4983925;28;20183;-80
2023/11/01 09:06:14;;;;;;;15.25;10.52;;;;;;;13.57;100.00;99609.13;4978721;28;20042;-81
2023/11/01 09:08:41;;;;;;;24.10;19.13;;;;;;;13.58;100.00;99597.59;4981095;28;20216;-81
2023/11/01 09:11:07;;;;;;;17.85;11.20;;;;;;;13.63;100.00;99601.47;4977776;28;20423;-80
2023/11/01 09:13:34;;;;;;;20.40;15.20;;;;;;;13.66;100.00;99595.81;4986044;28;20058;-81
2023/11/01 09:16:02;;;;;;;10.43;7.25;;;;;;;13.69;100.00;99598.03;4980479;28;20071;-82
2023/11/01 09:18:29;;;;;;;10.13;8.50;;;;;;;13.60;100.00;99598.22;4980086;28;20142;-79
2023/11/01 09:20:57;;;;;;;15.05;8.10;;;;;;;13.56;100.00;99596.19;4976668;28;20157;-79
2023/11/01 09:23:24;;;;;;;8.90;3.90;;;;;;;13.53;100.00;99591.31;4978268;28;20208;-81
2023/11/01 09:25:51;;;;;;;9.70;4.45;;;;;;;13.43;100.00;99591.72;4977982;28;20111;-80
2023/11/01 09:28:17;;;;;;;7.65;3.60;;;;;;;13.49;100.00;99600.63;4975709;28;20142;-80
2023/11/01 09:30:44;;;;;;;13.27;3.67;;;;;;;13.40;100.00;99599.19;4977555;28;20489;-80
2023/11/01 09:33:12;;;;;;;10.20;3.33;;;;;;;13.45;100.00;99600.22;4978336;28;20482;-79
2023/11/01 09:35:38;;;;;;;7.65;3.38;;;;;;;13.50;100.00;99605.69;4974892;28;20058;-81
2023/11/01 09:38:05;;;;;;;7.10;3.42;;;;;;;13.52;100.00;99593.16;4976844;28;20221;-79
2023/11/01 09:40:32;;;;;;;13.27;3.75;;;;;;;13.51;100.00;99602.03;4977411;28;20126;-80
2023/11/01 09:42:59;;;;;;;11.88;5.15;;;;;;;13.52;100.00;99602.84;4976703;28;20082;-81
2023/11/01 09:45:28;;;;;;;8.70;3.67;;;;;;;13.50;100.00;99586.47;4977021;28;20047;-79
2023/11/01 09:47:54;;;;;;;8.40;3.35;;;;;;;13.47;100.00;99584.25;4976516;28;20050;-80
2023/11/01 09:50:23;;;;;;;8.43;3.00;;;;;;;13.61;100.00;99586.69;4977342;28;20125;-81
2023/11/01 09:52:50;;;;;;;7.00;3.20;;;;;;;13.77;100.00;99588.09;4977113;28;20498;-80
2023/11/01 09:55:17;;;;;;;7.30;3.28;;;;;;;13.86;100.00;99584.25;4977468;28;20133;-78
2023/11/01 09:57:45;;;;;;;8.77;3.38;;;;;;;14.04;100.00;99585.47;4976032;28;20508;-80
2023/11/01 10:00:15;;;;;;;8.43;3.20;;;;;;;14.13;100.00;99585.06;4978984;28;20110;-80
2023/11/01 10:02:42;;;;;;;6.97;3.40;;;;;;;14.24;100.00;99587.06;4977692;28;20135;-81
2023/11/01 10:05:09;;;;;;;9.23;3.88;;;;;;;14.42;100.00;99577.75;4977299;28;20584;-81
2023/11/01 10:07:37;;;;;;;6.60;3.58;;;;;;;14.42;100.00;99577.75;4982180;28;20109;-79
2023/11/01 10:10:04;;;;;;;13.20;3.97;;;;;;;14.51;100.00;99568.63;4987985;28;20034;-81
2023/11/01 10:12:31;;;;;;;6.95;2.70;;;;;;;14.65;100.00;99562.28;4987893;28;20046;-82
2023/11/01 10:14:57;;;;;;;6.65;2.78;;;;;;;14.71;99.75;99556.16;4990732;28;20049;-82
2023/11/01 10:17:25;;;;;;;10.25;3.80;;;;;;;14.79;98.59;99548.03;4990359;28;20089;-82
2023/11/01 10:19:52;;;;;;;8.25;3.30;;;;;;;14.64;98.53;99544.88;4990995;28;20492;-80
2023/11/01 10:22:19;;;;;;;13.63;3.78;;;;;;;14.70;99.46;99553.75;4989847;28;20116;-81
2023/11/01 10:24:47;;;;;;;8.20;3.42;;;;;;;14.72;98.77;99542.00;4982864;28;20051;-81
2023/11/01 10:27:13;;;;;;;7.60;3.08;;;;;;;14.66;98.99;99529.66;4979850;28;20086;-82
2023/11/01 10:29:44;;;;;;;9.45;3.47;;;;;;;14.69;98.68;99528.44;4979234;28;20106;-81
2023/11/01 10:32:13;;;;;;;7.70;3.38;;;;;;;14.77;98.76;99523.75;4978931;28;20074;-80
2023/11/01 10:34:40;;;;;;;9.15;3.70;;;;;;;14.80;98.26;99527.78;4979973;28;20129;-82
2023/11/01 10:37:08;;;;;;;9.23;3.58;;;;;;;14.85;98.34;99530.59;4977803;28;20075;-79
2023/11/01 10:39:39;;;;;;;6.32;3.10;;;;;;;14.88;96.81;99511.75;4977979;28;20054;-81
2023/11/01 10:42:10;;;;;;;6.18;2.92;;;;;;;14.90;96.50;99509.72;4972426;28;20057;-80
2023/11/01 10:44:51;;;;;;;8.55;2.90;;;;;;;15.01;96.18;99502.97;5026515;23;20085;-80
2023/11/01 10:47:19;;;;;;;11.73;3.50;;;;;;;15.08;96.19;99503.72;5017366;28;20046;-82
2023/11/01 10:49:47;;;;;;;9.85;2.95;;;;;;;14.90;95.91;99491.28;5018005;28;20459;-80
2023/11/01 10:52:14;;;;;;;7.63;2.75;;;;;;;14.69;95.80;99471.31;5019368;28;20057;-81
2023/11/01 10:54:46;;;;;;;9.77;3.08;;;;;;;14.78;96.15;99491.13;5020058;28;20073;-80
2023/11/01 10:57:15;;;;;;;7.18;2.95;;;;;;;14.59;95.77;99479.69;5022090;28;20478;-79
2023/11/01 10:59:47;;;;;;;9.32;2.85;;;;;;;14.65;95.96;99483.28;5027518;28;20077;-82
2023/11/01 11:02:19;;;;;;;7.10;2.80;;;;;;;14.61;95.30;99466.31;5029411;28;20054;-81
2023/11/01 11:04:52;;;;;;;10.20;3.60;;;;;;;14.61;96.01;99471.59;5034556;28;20114;-79
2023/11/01 11:07:23;;;;;;;9.88;3.70;;;;;;;14.65;97.29;99478.00;5031495;28;20113;-81
2023/11/01 11:09:51;;;;;;;11.10;3.47;;;;;;;14.66;96.86;99469.09;5028250;28;20088;-81
2023/11/01 11:12:21;;;;;;;10.23;3.60;;;;;;;14.71;96.46;99456.13;5037041;28;20057;-80
2023/11/01 11:14:48;;;;;;;9.70;3.88;;;;;;;14.75;96.25;99452.03;5036993;28;20489;-80
2023/11/01 11:17:16;;;;;;;9.15;3.40;;;;;;;14.94;96.10;99447.69;5027105;28;20128;-81
2023/11/01 11:20:10;;;;;;;8.48;3.40;;;;;;;15.11;95.24;99440.06;5037036;28;20058;-80
2023/11/01 11:23:08;;;;;;;9.55;3.60;;;;;;;14.92;95.10;99440.00;5036228;28;20127;-78